createdAt,value
2019-05-17T00:01:42.970Z,15.70
2019-05-17T00:04:18.089Z,10.17
2019-05-17T00:07:00.198Z,11.87
2019-05-17T00:09:33.079Z,11.43
2019-05-17T00:12:08.101Z,14.63
2019-05-17T00:14:44.192Z,11.33
2019-05-17T00:17:19.111Z,13.73
2019-05-17T00:19:54.227Z,12.47
2019-05-17T00:22:29.082Z,12.10
2019-05-17T00:25:04.293Z,14.83
2019-05-17T00:27:39.520Z,15.03
2019-05-17T00:30:17.296Z,15.43
2019-05-17T00:32:50.778Z,9.00
2019-05-17T00:35:27.160Z,16.47
2019-05-17T00:38:02.017Z,17.23
2019-05-17T00:40:37.436Z,10.33
2019-05-17T00:43:12.134Z,10.83
2019-05-17T00:45:47.288Z,10.50
2019-05-17T00:48:22.556Z,10.57
2019-05-17T00:51:01.942Z,14.37
2019-05-17T00:53:36.249Z,12.90
2019-05-17T00:56:11.776Z,11.10
2019-05-17T00:58:47.815Z,11.67
2019-05-17T01:01:23.263Z,15.10
2019-05-17T01:03:58.645Z,14.23
2019-05-17T01:06:33.793Z,24.63
2019-05-17T01:09:10.187Z,10.67
2019-05-17T01:11:47.178Z,10.23
2019-05-17T01:14:21.509Z,14.47
2019-05-17T01:16:56.634Z,7.50
2019-05-17T01:19:31.605Z,5.50
2019-05-17T01:22:07.475Z,11.33
2019-05-17T01:24:42.522Z,7.43
2019-05-17T01:27:17.787Z,5.83
2019-05-17T01:29:52.607Z,2.87
2019-05-17T01:32:28.065Z,5.47
2019-05-17T01:35:02.980Z,9.47
2019-05-17T01:37:38.132Z,7.77
2019-05-17T01:40:13.325Z,11.40
2019-05-17T01:42:48.183Z,5.17
2019-05-17T01:45:23.512Z,10.80
2019-05-17T01:47:58.882Z,6.80
2019-05-17T01:50:33.882Z,5.90
2019-05-17T01:53:08.677Z,4.00
2019-05-17T01:55:43.965Z,5.33
2019-05-17T01:58:19.240Z,11.87
2019-05-17T02:00:57.155Z,9.73
2019-05-17T02:03:30.610Z,7.27
2019-05-17T02:06:07.503Z,5.30
2019-05-17T02:08:43.229Z,4.17
2019-05-17T02:11:18.441Z,6.30
2019-05-17T02:13:56.154Z,8.43
2019-05-17T02:16:30.810Z,6.23
2019-05-17T02:19:06.699Z,15.40
2019-05-17T02:21:41.726Z,22.30
2019-05-17T02:24:17.084Z,11.07
2019-05-17T02:26:52.071Z,8.17
2019-05-17T02:29:28.239Z,10.47
2019-05-17T02:32:04.041Z,7.17
2019-05-17T02:34:42.801Z,10.83
2019-05-17T02:37:15.509Z,7.43
2019-05-17T02:40:02.017Z,5.77
2019-05-17T02:42:27.421Z,7.83
2019-05-17T02:45:03.354Z,6.30
2019-05-17T02:47:38.507Z,6.60
2019-05-17T02:50:13.947Z,9.87
2019-05-17T02:52:48.915Z,7.70
2019-05-17T02:55:43.497Z,7.50
2019-05-17T02:58:23.057Z,15.03
2019-05-17T03:00:56.795Z,8.70
2019-05-17T03:03:32.364Z,19.63
2019-05-17T03:06:07.672Z,10.37
2019-05-17T03:08:42.969Z,5.87
2019-05-17T03:11:17.998Z,9.03
2019-05-17T03:13:53.174Z,4.17
2019-05-17T03:16:56.228Z,10.87
2019-05-17T03:19:32.790Z,7.40
2019-05-17T03:22:27.036Z,18.43
2019-05-17T03:25:03.546Z,13.87
2019-05-17T03:27:38.597Z,6.47
2019-05-17T03:30:18.290Z,10.20
2019-05-17T03:32:55.523Z,10.50
2019-05-17T03:35:27.519Z,5.40
2019-05-17T03:38:03.741Z,5.60
2019-05-17T03:41:13.417Z,6.97
2019-05-17T03:43:35.339Z,4.67
2019-05-17T03:46:13.956Z,5.10
2019-05-17T03:48:47.178Z,5.67
2019-05-17T03:51:23.318Z,14.30
2019-05-17T03:53:58.360Z,9.70
2019-05-17T03:56:33.582Z,7.27
2019-05-17T03:59:08.621Z,9.47
2019-05-17T04:01:44.695Z,5.67
2019-05-17T04:04:22.664Z,10.43
2019-05-17T04:06:55.646Z,7.43
2019-05-17T04:09:32.666Z,4.30
2019-05-17T04:12:06.792Z,13.50
2019-05-17T04:14:42.832Z,20.10
2019-05-17T04:17:18.010Z,8.93
2019-05-17T04:19:53.580Z,15.50
2019-05-17T04:22:32.985Z,14.33
2019-05-17T04:25:04.956Z,9.50
2019-05-17T04:27:43.142Z,16.30
2019-05-17T04:30:16.450Z,12.00
2019-05-17T04:32:52.719Z,13.20
2019-05-17T04:35:27.540Z,8.13
2019-05-17T04:38:03.994Z,5.87
2019-05-17T04:40:39.313Z,6.50
2019-05-17T04:43:14.776Z,5.83
2019-05-17T04:45:53.276Z,7.60
2019-05-17T04:48:25.814Z,5.90
2019-05-17T04:51:02.545Z,8.50
2019-05-17T04:53:37.944Z,7.10
2019-05-17T04:56:14.002Z,7.40
2019-05-17T04:58:50.426Z,4.87
2019-05-17T05:01:25.509Z,8.30
2019-05-17T05:04:03.539Z,8.23
2019-05-17T05:06:36.876Z,8.97
2019-05-17T05:09:12.975Z,8.00
2019-05-17T05:12:04.740Z,8.77
2019-05-17T05:14:35.865Z,7.63
2019-05-17T05:17:12.610Z,7.27
2019-05-17T05:19:47.729Z,14.50
2019-05-17T05:22:22.929Z,4.10
2019-05-17T05:24:58.101Z,9.37
2019-05-17T05:27:33.232Z,7.90
2019-05-17T05:30:12.909Z,4.53
2019-05-17T05:32:48.021Z,5.90
2019-05-17T05:35:22.845Z,10.20
2019-05-17T05:37:57.927Z,11.00
2019-05-17T05:40:34.580Z,5.67
2019-05-17T05:43:11.743Z,11.63
2019-05-17T05:45:45.749Z,12.83
2019-05-17T05:48:21.761Z,7.73
2019-05-17T05:50:56.831Z,5.33
2019-05-17T05:53:33.325Z,10.87
2019-05-17T05:56:08.248Z,8.17
2019-05-17T05:58:43.349Z,5.63
2019-05-17T06:01:18.422Z,10.33
2019-05-17T06:03:54.502Z,5.63
2019-05-17T06:06:29.313Z,8.20
2019-05-17T06:09:04.947Z,4.93
2019-05-17T06:11:41.559Z,5.90
2019-05-17T06:14:16.060Z,5.37
2019-05-17T06:16:51.990Z,6.30
2019-05-17T06:19:27.423Z,5.50
2019-05-17T06:22:08.134Z,9.00
2019-05-17T06:24:43.623Z,9.47
2019-05-17T06:27:18.501Z,8.20
2019-05-17T06:29:53.613Z,5.27
2019-05-17T06:32:31.537Z,8.27
2019-05-17T06:35:06.592Z,9.20
2019-05-17T06:37:42.342Z,6.37
2019-05-17T06:40:18.402Z,6.67
2019-05-17T06:42:53.231Z,6.97
2019-05-17T06:45:47.843Z,3.87
2019-05-17T06:48:22.730Z,6.83
2019-05-17T06:50:57.956Z,7.50
2019-05-17T06:53:52.389Z,4.07
2019-05-17T06:56:27.454Z,9.53
2019-05-17T06:59:02.185Z,11.77
2019-05-17T07:01:37.012Z,10.97
2019-05-17T07:04:11.948Z,13.97
2019-05-17T07:06:49.554Z,10.20
2019-05-17T07:09:24.463Z,10.80
2019-05-17T07:11:59.632Z,8.13
2019-05-17T07:14:34.774Z,12.57
2019-05-17T07:17:09.812Z,11.23
2019-05-17T07:19:44.895Z,8.37
2019-05-17T07:22:21.179Z,5.97
2019-05-17T07:24:56.326Z,13.37
2019-05-17T07:27:41.025Z,6.10
2019-05-17T07:30:09.910Z,13.47
2019-05-17T07:32:44.402Z,12.07
2019-05-17T07:35:19.772Z,5.77
2019-05-17T07:37:55.364Z,5.03
2019-05-17T07:40:30.434Z,12.43
2019-05-17T07:43:10.591Z,7.93
2019-05-17T07:45:41.881Z,7.33
2019-05-17T07:48:19.759Z,8.97
2019-05-17T07:50:53.353Z,15.30
2019-05-17T07:53:30.450Z,8.03
2019-05-17T07:56:04.570Z,10.37
2019-05-17T07:58:40.398Z,10.67
2019-05-17T08:01:16.203Z,15.27
2019-05-17T08:03:51.076Z,14.57
2019-05-17T08:06:26.263Z,11.70
2019-05-17T08:09:04.118Z,15.43
2019-05-17T08:11:39.657Z,18.10
2019-05-17T08:14:26.699Z,10.83
2019-05-17T08:16:51.712Z,13.33
2019-05-17T08:19:26.639Z,9.67
2019-05-17T08:22:01.699Z,10.03
2019-05-17T08:24:36.683Z,11.43
2019-05-17T08:27:11.840Z,13.67
2019-05-17T08:29:46.567Z,9.27
2019-05-17T08:32:21.917Z,7.40
2019-05-17T08:34:56.793Z,11.00
2019-05-17T08:37:32.014Z,13.57
2019-05-17T08:40:10.490Z,6.67
2019-05-17T08:42:44.141Z,8.20
2019-05-17T08:45:20.570Z,10.40
2019-05-17T08:47:55.126Z,12.70
2019-05-17T08:50:30.611Z,8.40
2019-05-17T08:53:05.443Z,10.23
2019-05-17T08:55:41.070Z,10.67
2019-05-17T08:58:16.056Z,9.13
2019-05-17T09:00:51.391Z,12.53
2019-05-17T09:03:26.622Z,10.10
2019-05-17T09:06:02.691Z,12.77
2019-05-17T09:08:40.378Z,10.30
2019-05-17T09:11:14.258Z,10.33
2019-05-17T09:13:57.895Z,10.23
2019-05-17T09:16:25.264Z,9.00
2019-05-17T09:19:00.621Z,14.73
2019-05-17T09:21:35.447Z,12.63
2019-05-17T09:24:10.606Z,19.00
2019-05-17T09:26:45.417Z,10.60
2019-05-17T09:29:20.470Z,10.67
2019-05-17T09:31:55.388Z,15.53
2019-05-17T09:34:49.801Z,14.03
2019-05-17T09:37:24.976Z,10.20
2019-05-17T09:40:00.077Z,9.80
2019-05-17T09:42:54.439Z,17.40
2019-05-17T09:45:30.638Z,19.40
2019-05-17T09:48:06.144Z,15.13
2019-05-17T09:50:41.902Z,17.93
2019-05-17T09:53:16.915Z,21.50
2019-05-17T09:55:52.572Z,15.70
2019-05-17T09:58:29.799Z,16.60
2019-05-17T10:01:03.918Z,16.80
2019-05-17T10:03:39.743Z,14.67
2019-05-17T10:06:16.916Z,15.37
2019-05-17T10:08:51.724Z,10.77
2019-05-17T10:11:26.623Z,12.50
2019-05-17T10:14:01.384Z,19.97
2019-05-17T10:16:37.224Z,17.27
2019-05-17T10:19:12.363Z,14.00
2019-05-17T10:21:47.552Z,25.83
2019-05-17T10:24:34.897Z,15.97
2019-05-17T10:26:59.532Z,18.10
2019-05-17T10:29:35.212Z,22.20
2019-05-17T10:32:10.619Z,19.60
2019-05-17T10:34:45.762Z,28.60
2019-05-17T10:37:20.957Z,37.93
2019-05-17T10:39:56.140Z,26.70
2019-05-17T10:42:31.048Z,32.93
2019-05-17T10:45:06.252Z,29.33
2019-05-17T10:47:41.293Z,31.03
2019-05-17T10:50:21.544Z,26.43
2019-05-17T10:52:56.556Z,29.23
2019-05-17T10:55:31.627Z,23.27
2019-05-17T10:58:06.592Z,29.67
2019-05-17T11:00:42.520Z,21.77
2019-05-17T11:03:31.148Z,22.37
2019-05-17T11:06:10.698Z,20.90
2019-05-17T11:08:44.390Z,20.77
2019-05-17T11:11:20.350Z,18.23
2019-05-17T11:13:55.767Z,24.73
2019-05-17T11:16:31.128Z,25.37
2019-05-17T11:19:08.721Z,25.93
2019-05-17T11:21:43.456Z,19.63
2019-05-17T11:24:20.783Z,26.10
2019-05-17T11:26:55.166Z,22.90
2019-05-17T11:29:30.327Z,21.80
2019-05-17T11:32:06.290Z,23.77
2019-05-17T11:34:42.185Z,22.17
2019-05-17T11:37:17.146Z,21.00
2019-05-17T11:39:52.442Z,24.27
2019-05-17T11:42:27.651Z,23.67
2019-05-17T11:45:03.036Z,20.43
2019-05-17T11:47:38.151Z,14.30
2019-05-17T11:50:14.246Z,17.70
2019-05-17T11:52:49.123Z,22.13
2019-05-17T11:55:43.447Z,18.17
2019-05-17T11:58:18.593Z,21.70
2019-05-17T12:00:53.705Z,17.73
2019-05-17T12:03:30.006Z,24.10
2019-05-17T12:06:08.268Z,19.57
2019-05-17T12:08:43.473Z,23.00
2019-05-17T12:11:19.997Z,20.87
2019-05-17T12:13:55.323Z,23.07
2019-05-17T12:16:30.394Z,21.57
2019-05-17T12:19:05.870Z,22.63
2019-05-17T12:21:43.959Z,22.73
2019-05-17T12:24:19.304Z,22.83
2019-05-17T12:26:54.355Z,22.77
2019-05-17T12:29:29.257Z,19.73
2019-05-17T12:32:04.458Z,19.90
2019-05-17T12:34:40.062Z,26.93
2019-05-17T12:37:15.161Z,27.23
2019-05-17T12:39:50.485Z,27.77
2019-05-17T12:42:25.960Z,21.77
2019-05-17T12:45:01.085Z,27.93
2019-05-17T12:47:36.245Z,23.53
2019-05-17T12:50:15.072Z,24.50
2019-05-17T12:52:49.919Z,22.00
2019-05-17T12:55:25.831Z,23.50
2019-05-17T12:58:00.728Z,23.43
2019-05-17T13:00:35.959Z,24.47
2019-05-17T13:03:14.874Z,19.07
2019-05-17T13:05:50.421Z,21.50
2019-05-17T13:08:25.825Z,20.30
2019-05-17T13:11:00.968Z,14.80
2019-05-17T13:13:48.800Z,17.67
2019-05-17T13:16:24.539Z,18.60
2019-05-17T13:18:59.562Z,19.37
2019-05-17T13:21:34.875Z,17.07
2019-05-17T13:24:09.680Z,20.23
2019-05-17T13:26:44.538Z,17.83
2019-05-17T13:29:19.457Z,18.10
2019-05-17T13:31:54.706Z,27.13
2019-05-17T13:34:30.002Z,17.83
2019-05-17T13:37:05.625Z,18.30
2019-05-17T13:39:41.104Z,22.00
2019-05-17T13:42:16.652Z,25.07
2019-05-17T13:44:51.707Z,18.50
2019-05-17T13:47:26.942Z,21.37
2019-05-17T13:50:01.709Z,15.30
2019-05-17T13:52:37.201Z,17.47
2019-05-17T13:55:12.328Z,22.07
2019-05-17T13:57:47.364Z,18.33
2019-05-17T14:00:22.813Z,17.97
2019-05-17T14:02:57.930Z,21.10
2019-05-17T14:05:33.200Z,18.30
2019-05-17T14:08:09.246Z,17.87
2019-05-17T14:10:44.205Z,22.03
2019-05-17T14:13:19.427Z,17.57
2019-05-17T14:15:54.279Z,31.40
2019-05-17T14:18:29.573Z,20.80
2019-05-17T14:21:04.325Z,24.83
2019-05-17T14:23:39.282Z,21.27
2019-05-17T14:26:33.519Z,17.17
2019-05-17T14:29:08.525Z,23.17
2019-05-17T14:31:56.496Z,23.47
2019-05-17T14:34:31.590Z,16.73
2019-05-17T14:37:07.782Z,16.37
2019-05-17T14:39:43.998Z,17.37
2019-05-17T14:42:38.105Z,14.90
2019-05-17T14:45:13.834Z,18.30
2019-05-17T14:47:48.790Z,18.47
2019-05-17T14:50:23.786Z,20.80
2019-05-17T14:52:58.962Z,18.50
2019-05-17T14:55:33.816Z,17.30
2019-05-17T14:58:08.975Z,14.83
2019-05-17T15:00:43.850Z,18.17
2019-05-17T15:03:19.344Z,16.00
2019-05-17T15:05:54.257Z,16.93
2019-05-17T15:08:29.773Z,14.83
2019-05-17T15:11:05.329Z,18.87
2019-05-17T15:13:40.265Z,22.07
2019-05-17T15:16:15.743Z,20.53
2019-05-17T15:18:50.548Z,24.93
2019-05-17T15:21:25.656Z,21.37
2019-05-17T15:24:00.520Z,15.77
2019-05-17T15:26:35.780Z,19.03
2019-05-17T15:29:30.370Z,22.47
2019-05-17T15:32:05.269Z,18.43
2019-05-17T15:34:40.391Z,18.27
2019-05-17T15:37:16.290Z,19.23
2019-05-17T15:39:51.520Z,16.87
2019-05-17T15:42:26.477Z,20.97
2019-05-17T15:45:01.600Z,20.03
2019-05-17T15:47:37.858Z,16.17
2019-05-17T15:50:14.255Z,22.90
2019-05-17T15:52:49.093Z,16.00
2019-05-17T15:55:24.983Z,18.33
2019-05-17T15:58:00.330Z,19.13
2019-05-17T16:00:35.886Z,16.83
2019-05-17T16:03:11.326Z,16.73
2019-05-17T16:05:46.786Z,15.00
2019-05-17T16:08:22.206Z,16.57
2019-05-17T16:10:57.624Z,17.50
2019-05-17T16:13:33.966Z,18.97
2019-05-17T16:16:08.985Z,16.33
2019-05-17T16:19:03.423Z,19.50
2019-05-17T16:21:38.229Z,21.57
2019-05-17T16:24:13.837Z,13.30
2019-05-17T16:26:48.693Z,17.63
2019-05-17T16:29:23.589Z,18.30
2019-05-17T16:31:58.327Z,22.20
2019-05-17T16:34:33.556Z,19.77
2019-05-17T16:37:08.399Z,19.97
2019-05-17T16:39:43.950Z,19.73
2019-05-17T16:42:19.030Z,17.10
2019-05-17T16:44:53.868Z,24.07
2019-05-17T16:47:28.760Z,16.43
2019-05-17T16:50:04.085Z,22.90
2019-05-17T16:52:39.543Z,21.40
2019-05-17T16:55:14.955Z,20.07
2019-05-17T16:57:50.036Z,19.77
2019-05-17T17:00:42.313Z,24.77
2019-05-17T17:03:17.083Z,15.23
2019-05-17T17:05:52.520Z,25.03
2019-05-17T17:08:27.364Z,18.17
2019-05-17T17:11:03.544Z,17.70
2019-05-17T17:13:38.973Z,17.80
2019-05-17T17:16:13.928Z,19.47
2019-05-17T17:18:49.122Z,15.97
2019-05-17T17:21:24.141Z,20.47
2019-05-17T17:23:59.011Z,13.73
2019-05-17T17:26:33.949Z,24.20
2019-05-17T17:29:09.596Z,19.37
2019-05-17T17:31:44.544Z,19.40
2019-05-17T17:34:19.757Z,17.87
2019-05-17T17:36:54.726Z,17.03
2019-05-17T17:39:29.954Z,17.70
2019-05-17T17:42:04.728Z,16.03
2019-05-17T17:44:40.430Z,16.23
2019-05-17T17:47:15.724Z,15.30
2019-05-17T17:49:50.430Z,16.33
2019-05-17T17:52:25.633Z,18.23
2019-05-17T17:55:00.625Z,15.13
2019-05-17T17:57:35.934Z,14.97
2019-05-17T18:00:11.536Z,13.03
2019-05-17T18:02:46.632Z,20.30
2019-05-17T18:05:24.401Z,18.40
2019-05-17T18:07:57.565Z,17.00
2019-05-17T18:10:35.398Z,21.20
2019-05-17T18:13:10.848Z,18.10
2019-05-17T18:15:50.213Z,19.33
2019-05-17T18:18:24.179Z,15.43
2019-05-17T18:20:59.461Z,30.53
2019-05-17T18:23:34.415Z,18.87
2019-05-17T18:26:10.644Z,17.60
2019-05-17T18:28:45.588Z,20.13
2019-05-17T18:31:21.309Z,16.90
2019-05-17T18:33:56.292Z,16.27
2019-05-17T18:36:31.460Z,15.53
2019-05-17T18:39:08.767Z,18.70
2019-05-17T18:41:45.306Z,14.23
2019-05-17T18:44:27.061Z,15.03
2019-05-17T18:46:57.502Z,17.40
2019-05-17T18:49:32.710Z,13.03
2019-05-17T18:52:07.795Z,22.53
2019-05-17T18:54:42.950Z,14.40
2019-05-17T18:57:19.597Z,18.43
2019-05-17T18:59:54.503Z,16.83
2019-05-17T19:02:29.675Z,16.57
2019-05-17T19:05:04.640Z,19.00
2019-05-17T19:07:40.027Z,15.80
2019-05-17T19:10:33.430Z,19.03
2019-05-17T19:13:09.689Z,19.70
2019-05-17T19:15:44.619Z,29.90
2019-05-17T19:18:19.599Z,15.50
2019-05-17T19:20:54.561Z,14.60
2019-05-17T19:23:29.943Z,13.73
2019-05-17T19:26:04.842Z,17.87
2019-05-17T19:28:40.310Z,14.50
2019-05-17T19:31:15.711Z,16.80
2019-05-17T19:33:50.728Z,14.60
2019-05-17T19:36:25.558Z,13.43
2019-05-17T19:39:00.777Z,13.33
2019-05-17T19:41:36.776Z,15.57
2019-05-17T19:44:12.369Z,20.50
2019-05-17T19:46:47.053Z,18.20
2019-05-17T19:49:21.973Z,15.33
2019-05-17T19:51:56.802Z,13.13
2019-05-17T19:54:31.966Z,15.50
2019-05-17T19:57:06.952Z,14.63
2019-05-17T19:59:41.981Z,16.37
2019-05-17T20:02:16.687Z,17.07
2019-05-17T20:04:52.289Z,13.60
2019-05-17T20:07:27.185Z,16.20
2019-05-17T20:10:02.142Z,18.37
2019-05-17T20:12:36.988Z,18.53
2019-05-17T20:15:17.765Z,18.20
2019-05-17T20:17:49.092Z,17.97
2019-05-17T20:20:24.666Z,15.60
2019-05-17T20:22:59.929Z,16.37
2019-05-17T20:25:35.311Z,14.90
2019-05-17T20:28:10.204Z,16.30
2019-05-17T20:30:45.224Z,16.93
2019-05-17T20:33:20.870Z,18.20
2019-05-17T20:35:55.927Z,15.27
2019-05-17T20:38:31.401Z,16.03
2019-05-17T20:41:06.415Z,19.40
2019-05-17T20:43:41.651Z,17.17
2019-05-17T20:46:16.980Z,16.93
2019-05-17T20:48:52.331Z,21.20
2019-05-17T20:51:27.121Z,18.40
2019-05-17T20:54:03.941Z,15.93
2019-05-17T20:56:38.078Z,18.33
2019-05-17T20:59:13.684Z,17.03
2019-05-17T21:01:48.642Z,16.87
2019-05-17T21:04:24.356Z,20.43
2019-05-17T21:06:59.169Z,17.00
2019-05-17T21:09:34.291Z,16.00
2019-05-17T21:12:09.191Z,18.13
2019-05-17T21:14:44.578Z,21.93
2019-05-17T21:17:19.544Z,17.37
2019-05-17T21:19:55.012Z,20.53
2019-05-17T21:22:29.864Z,18.47
2019-05-17T21:25:05.250Z,14.20
2019-05-17T21:27:40.197Z,23.40
2019-05-17T21:30:15.315Z,17.80
2019-05-17T21:32:50.204Z,15.00
2019-05-17T21:35:28.038Z,15.17
2019-05-17T21:38:01.295Z,25.87
2019-05-17T21:40:36.458Z,20.40
2019-05-17T21:43:11.654Z,16.93
2019-05-17T21:45:46.610Z,19.03
2019-05-17T21:48:22.095Z,19.60
2019-05-17T21:50:56.741Z,25.47
2019-05-17T21:53:31.750Z,22.30
2019-05-17T21:56:26.031Z,19.40
2019-05-17T21:59:00.770Z,17.27
2019-05-17T22:01:36.751Z,20.20
2019-05-17T22:04:11.799Z,18.40
2019-05-17T22:06:46.834Z,18.63
2019-05-17T22:09:21.701Z,27.13
2019-05-17T22:12:01.404Z,19.60
2019-05-17T22:14:36.605Z,19.50
2019-05-17T22:17:11.999Z,22.40
2019-05-17T22:19:47.298Z,23.00
2019-05-17T22:22:22.060Z,20.00
2019-05-17T22:24:57.162Z,17.60
2019-05-17T22:27:32.214Z,23.77
2019-05-17T22:30:08.173Z,21.17
2019-05-17T22:32:43.139Z,21.33
2019-05-17T22:35:18.184Z,21.63
2019-05-17T22:37:53.660Z,26.87
2019-05-17T22:40:28.762Z,22.10
2019-05-17T22:43:04.428Z,26.10
2019-05-17T22:45:39.345Z,25.63
2019-05-17T22:48:14.723Z,27.13
2019-05-17T22:50:49.463Z,22.97
2019-05-17T22:53:24.681Z,29.97
2019-05-17T22:55:59.648Z,30.53
2019-05-17T22:58:35.334Z,26.17
2019-05-17T23:01:10.083Z,25.27
2019-05-17T23:03:45.827Z,27.50
2019-05-17T23:06:20.941Z,31.33
2019-05-17T23:08:56.232Z,29.00
2019-05-17T23:11:32.081Z,29.77
2019-05-17T23:14:07.835Z,23.87
2019-05-17T23:16:50.910Z,25.40
2019-05-17T23:19:20.413Z,27.47
2019-05-17T23:21:56.202Z,27.80
2019-05-17T23:24:31.833Z,26.83
2019-05-17T23:27:06.715Z,22.03
2019-05-17T23:29:42.327Z,21.57
2019-05-17T23:32:17.245Z,22.10
2019-05-17T23:34:54.452Z,28.17
2019-05-17T23:37:29.213Z,29.07
2019-05-17T23:40:04.254Z,22.43
2019-05-17T23:42:40.311Z,24.13
2019-05-17T23:45:16.070Z,26.03
2019-05-17T23:47:50.896Z,19.43
2019-05-17T23:50:25.976Z,24.53
2019-05-17T23:53:00.917Z,24.20
2019-05-17T23:55:36.055Z,24.60
2019-05-17T23:58:11.008Z,27.47
